createdAt,value
2023-04-15T00:00:58.498Z,96750.72
2023-04-15T00:03:25.602Z,96750.44
2023-04-15T00:05:52.254Z,96748.28
2023-04-15T00:08:19.434Z,96745.13
2023-04-15T00:10:46.735Z,96737.88
2023-04-15T00:13:13.458Z,96740.34
2023-04-15T00:15:39.979Z,96740.16
2023-04-15T00:18:07.990Z,96730.94
2023-04-15T00:20:35.226Z,96738.22
2023-04-15T00:23:02.555Z,96734.56
2023-04-15T00:25:29.235Z,96730.59
2023-04-15T00:27:55.804Z,96732.59
2023-04-15T00:30:22.444Z,96729.28
2023-04-15T00:32:49.574Z,96723.03
2023-04-15T00:35:16.498Z,96721.66
2023-04-15T00:37:44.232Z,96718.56
2023-04-15T00:40:13.817Z,96718.06
2023-04-15T00:42:40.700Z,96705.50
2023-04-15T00:45:08.731Z,96711.09
2023-04-15T00:47:35.608Z,96707.50
2023-04-15T00:50:02.171Z,96707.81
2023-04-15T00:52:28.634Z,96708.44
2023-04-15T00:54:55.455Z,96714.53
2023-04-15T00:57:22.374Z,96706.13
2023-04-15T00:59:48.926Z,96693.28
2023-04-15T01:02:15.518Z,96699.88
2023-04-15T01:04:42.215Z,96706.78
2023-04-15T01:07:09.177Z,96697.88
2023-04-15T01:09:35.722Z,96703.34
2023-04-15T01:12:02.556Z,96703.03
2023-04-15T01:14:29.054Z,96703.47
2023-04-15T01:16:55.606Z,96697.88
2023-04-15T01:19:22.065Z,96705.16
2023-04-15T01:21:48.532Z,96701.84
2023-04-15T01:24:16.394Z,96702.03
2023-04-15T01:26:44.474Z,96695.09
2023-04-15T01:29:11.185Z,96706.31
2023-04-15T01:31:37.854Z,96699.00
2023-04-15T01:34:04.691Z,96701.84
2023-04-15T01:36:31.151Z,96703.47
2023-04-15T01:38:57.791Z,96699.50
2023-04-15T01:41:28.018Z,96715.72
2023-04-15T01:43:54.953Z,96716.56
2023-04-15T01:46:21.545Z,96704.97
2023-04-15T01:48:48.068Z,96707.13
2023-04-15T01:51:14.579Z,96706.50
2023-04-15T01:53:41.092Z,96700.69
2023-04-15T01:56:08.058Z,96703.03
2023-04-15T01:58:34.546Z,96688.81
2023-04-15T02:01:01.832Z,96685.97
2023-04-15T02:03:29.568Z,96691.13
2023-04-15T02:05:56.654Z,96696.91
2023-04-15T02:08:23.199Z,96700.69
2023-04-15T02:10:49.723Z,96699.22
2023-04-15T02:13:17.019Z,96701.88
2023-04-15T02:15:49.926Z,96694.75
2023-04-15T02:18:16.700Z,96698.75
2023-04-15T02:20:46.968Z,96692.97
2023-04-15T02:23:13.659Z,96693.31
2023-04-15T02:25:40.452Z,96696.94
2023-04-15T02:28:06.931Z,96694.59
2023-04-15T02:30:33.950Z,96698.75
2023-04-15T02:33:00.986Z,96686.34
2023-04-15T02:35:27.735Z,96695.59
2023-04-15T02:37:54.248Z,96695.09
2023-04-15T02:40:20.748Z,96693.09
2023-04-15T02:42:47.312Z,96693.94
2023-04-15T02:45:14.073Z,96693.94
2023-04-15T02:47:41.620Z,96688.66
2023-04-15T02:50:09.573Z,96692.75
2023-04-15T02:52:36.102Z,96696.91
2023-04-15T02:55:04.271Z,96690.94
2023-04-15T02:57:30.969Z,96693.94
2023-04-15T02:59:57.534Z,96699.56
2023-04-15T03:02:24.335Z,96705.88
2023-04-15T03:04:51.151Z,96696.63
2023-04-15T03:07:18.428Z,96698.59
2023-04-15T03:09:45.866Z,96695.63
2023-04-15T03:12:12.394Z,96687.41
2023-04-15T03:14:39.004Z,96700.91
2023-04-15T03:17:05.482Z,96694.34
2023-04-15T03:19:31.972Z,96692.06
2023-04-15T03:21:58.513Z,96697.66
2023-04-15T03:24:25.017Z,96696.69
2023-04-15T03:26:51.507Z,96690.41
2023-04-15T03:29:18.073Z,96693.44
2023-04-15T03:31:44.532Z,96696.41
2023-04-15T03:34:11.048Z,96700.06
2023-04-15T03:36:37.573Z,96695.91
2023-04-15T03:39:04.249Z,96699.41
2023-04-15T03:41:31.008Z,96689.50
2023-04-15T03:43:57.536Z,96700.41
2023-04-15T03:46:24.103Z,96695.31
2023-04-15T03:48:50.587Z,96699.28
2023-04-15T03:51:17.107Z,96692.50
2023-04-15T03:53:43.592Z,96700.59
2023-04-15T03:56:10.081Z,96689.53
2023-04-15T03:58:36.670Z,96695.19
2023-04-15T04:01:03.169Z,96688.41
2023-04-15T04:03:29.820Z,96695.84
2023-04-15T04:05:56.704Z,96694.53
2023-04-15T04:08:23.140Z,96697.31
2023-04-15T04:10:49.622Z,96691.22
2023-04-15T04:13:16.647Z,96695.03
2023-04-15T04:15:43.124Z,96698.81
2023-04-15T04:18:09.605Z,96698.66
2023-04-15T04:20:36.185Z,96698.81
2023-04-15T04:23:02.660Z,96709.38
2023-04-15T04:25:29.131Z,96707.38
2023-04-15T04:27:55.599Z,96712.03
2023-04-15T04:30:22.146Z,96709.69
2023-04-15T04:32:49.796Z,96718.47
2023-04-15T04:35:16.675Z,96717.47
2023-04-15T04:37:43.157Z,96713.19
2023-04-15T04:40:10.583Z,96718.63
2023-04-15T04:42:39.373Z,96727.22
2023-04-15T04:45:07.397Z,96728.69
2023-04-15T04:47:33.915Z,96722.75
2023-04-15T04:50:00.525Z,96724.06
2023-04-15T04:52:27.010Z,96735.47
2023-04-15T04:54:53.508Z,96739.06
2023-04-15T04:57:20.005Z,96734.63
2023-04-15T04:59:46.563Z,96736.09
2023-04-15T05:02:13.073Z,96746.50
2023-04-15T05:04:39.695Z,96750.28
2023-04-15T05:07:06.162Z,96742.38
2023-04-15T05:09:33.882Z,96747.97
2023-04-15T05:12:01.381Z,96746.00
2023-04-15T05:14:27.995Z,96742.56
2023-04-15T05:16:54.467Z,96734.13
2023-04-15T05:19:21.121Z,96742.38
2023-04-15T05:21:47.585Z,96736.09
2023-04-15T05:24:14.051Z,96746.00
2023-04-15T05:26:41.521Z,96750.63
2023-04-15T05:29:08.894Z,96738.91
2023-04-15T05:31:35.411Z,96747.97
2023-04-15T05:34:02.043Z,96744.69
2023-04-15T05:36:28.745Z,96752.44
2023-04-15T05:38:55.464Z,96735.47
2023-04-15T05:41:22.197Z,96745.03
2023-04-15T05:43:48.717Z,96741.69
2023-04-15T05:46:15.286Z,96748.16
2023-04-15T05:48:41.775Z,96746.00
2023-04-15T05:51:08.257Z,96748.31
2023-04-15T05:53:34.718Z,96750.28
2023-04-15T05:56:01.496Z,96746.81
2023-04-15T05:58:28.058Z,96737.75
2023-04-15T06:00:54.936Z,96749.81
2023-04-15T06:03:23.006Z,96760.03
2023-04-15T06:05:49.830Z,96750.63
2023-04-15T06:08:16.300Z,96750.63
2023-04-15T06:10:42.813Z,96751.28
2023-04-15T06:13:09.271Z,96749.63
2023-04-15T06:15:35.885Z,96761.84
2023-04-15T06:18:03.169Z,96748.63
2023-04-15T06:20:29.752Z,96749.31
2023-04-15T06:22:56.331Z,96754.25
2023-04-15T06:25:23.607Z,96753.94
2023-04-15T06:27:50.259Z,96753.09
2023-04-15T06:30:17.006Z,96754.09
2023-04-15T06:32:43.651Z,96758.06
2023-04-15T06:35:10.435Z,96766.63
2023-04-15T06:37:36.933Z,96757.56
2023-04-15T06:40:05.212Z,96758.38
2023-04-15T06:42:31.831Z,96755.59
2023-04-15T06:44:58.319Z,96757.88
2023-04-15T06:47:24.851Z,96752.28
2023-04-15T06:49:51.885Z,96759.03
2023-04-15T06:52:18.427Z,96756.22
2023-04-15T06:54:44.924Z,96765.16
2023-04-15T06:57:11.410Z,96770.75
2023-04-15T06:59:38.037Z,96765.16
2023-04-15T07:02:04.974Z,96766.78
2023-04-15T07:04:31.616Z,96762.34
2023-04-15T07:06:58.211Z,96770.41
2023-04-15T07:09:24.875Z,96766.94
2023-04-15T07:11:51.548Z,96770.25
2023-04-15T07:14:18.188Z,96754.25
2023-04-15T07:16:44.783Z,96758.72
2023-04-15T07:19:11.746Z,96755.59
2023-04-15T07:21:39.989Z,96761.69
2023-04-15T07:24:07.895Z,96766.97
2023-04-15T07:26:34.385Z,96758.56
2023-04-15T07:29:01.323Z,96765.13
2023-04-15T07:31:28.566Z,96767.25
2023-04-15T07:33:55.202Z,96767.91
2023-04-15T07:36:21.660Z,96768.59
2023-04-15T07:38:48.405Z,96779.66
2023-04-15T07:41:15.911Z,96764.13
2023-04-15T07:43:43.003Z,96771.72
2023-04-15T07:46:11.489Z,96767.06
2023-04-15T07:48:38.004Z,96770.38
2023-04-15T07:51:04.738Z,96767.41
2023-04-15T07:53:31.399Z,96773.38
2023-04-15T07:55:58.287Z,96772.69
2023-04-15T07:58:25.075Z,96776.16
2023-04-15T08:00:51.694Z,96778.09
2023-04-15T08:03:18.415Z,96781.59
2023-04-15T08:05:45.497Z,96788.03
2023-04-15T08:08:12.045Z,96788.84
2023-04-15T08:10:38.532Z,96783.41
2023-04-15T08:13:04.976Z,96786.25
2023-04-15T08:15:32.909Z,96783.25
2023-04-15T08:18:00.895Z,96788.03
2023-04-15T08:20:27.668Z,96786.53
2023-04-15T08:22:54.254Z,96784.53
2023-04-15T08:25:21.462Z,96799.91
2023-04-15T08:27:48.097Z,96796.97
2023-04-15T08:30:15.337Z,96778.16
2023-04-15T08:32:47.807Z,96792.13
2023-04-15T08:35:14.487Z,96801.25
2023-04-15T08:37:41.264Z,96800.06
2023-04-15T08:40:09.263Z,96810.31
2023-04-15T08:42:43.020Z,96808.66
2023-04-15T08:45:11.319Z,96808.31
2023-04-15T08:47:38.884Z,96803.69
2023-04-15T08:50:06.107Z,96809.94
2023-04-15T08:52:32.896Z,96803.38
2023-04-15T08:54:59.679Z,96808.63
2023-04-15T08:57:29.317Z,96821.19
2023-04-15T08:59:56.424Z,96817.88
2023-04-15T09:02:23.760Z,96814.59
2023-04-15T09:04:50.605Z,96823.34
2023-04-15T09:07:17.330Z,96819.06
2023-04-15T09:09:43.811Z,96826.50
2023-04-15T09:12:11.558Z,96821.84
2023-04-15T09:14:42.211Z,96813.09
2023-04-15T09:17:10.364Z,96826.00
2023-04-15T09:19:36.990Z,96819.84
2023-04-15T09:22:03.444Z,96833.72
2023-04-15T09:24:38.706Z,96832.09
2023-04-15T09:27:05.453Z,96833.41
2023-04-15T09:29:32.248Z,96827.44
2023-04-15T09:32:19.594Z,96838.50
2023-04-15T09:34:46.127Z,96833.06
2023-04-15T09:37:28.657Z,96826.13
2023-04-15T09:39:58.471Z,96826.78
2023-04-15T09:42:25.161Z,96844.63
2023-04-15T09:44:52.973Z,96843.94
2023-04-15T09:47:32.384Z,96837.34
2023-04-15T09:49:59.376Z,96839.97
2023-04-15T09:52:26.041Z,96844.09
2023-04-15T09:54:53.533Z,96848.00
2023-04-15T09:57:19.983Z,96853.53
2023-04-15T09:59:46.461Z,96848.69
2023-04-15T10:02:13.034Z,96844.28
2023-04-15T10:04:40.551Z,96846.88
2023-04-15T10:07:08.609Z,96848.91
2023-04-15T10:09:36.315Z,96848.88
2023-04-15T10:12:05.204Z,96845.72
2023-04-15T10:14:33.770Z,96854.47
2023-04-15T10:17:01.920Z,96857.66
2023-04-15T10:19:28.384Z,96848.72
2023-04-15T10:21:54.874Z,96852.19
2023-04-15T10:24:21.641Z,96854.00
2023-04-15T10:26:48.111Z,96854.31
2023-04-15T10:29:14.584Z,96856.81
2023-04-15T10:31:41.535Z,96846.34
2023-04-15T10:34:08.146Z,96851.66
2023-04-15T10:36:34.671Z,96844.66
2023-04-15T10:39:01.416Z,96848.63
2023-04-15T10:41:31.164Z,96845.91
2023-04-15T10:44:02.989Z,96840.16
2023-04-15T10:46:43.309Z,96848.88
2023-04-15T10:49:17.155Z,96842.50
2023-04-15T10:51:46.011Z,96841.09
2023-04-15T10:54:16.981Z,96839.09
2023-04-15T10:56:46.881Z,96844.38
2023-04-15T10:59:13.373Z,96849.88
2023-04-15T11:02:12.673Z,96851.81
2023-04-15T11:04:55.464Z,96866.56
2023-04-15T11:07:38.740Z,96852.16
2023-04-15T11:10:25.799Z,96854.41
2023-04-15T11:13:11.121Z,96854.59
2023-04-15T11:15:41.658Z,96859.69
2023-04-15T11:18:22.271Z,96861.03
2023-04-15T11:21:07.761Z,96857.56
2023-04-15T11:23:36.732Z,96857.06
2023-04-15T11:26:06.844Z,96861.28
2023-04-15T11:28:33.585Z,96859.31
2023-04-15T11:31:06.292Z,96866.47
2023-04-15T11:33:32.696Z,96870.88
2023-04-15T11:35:59.174Z,96874.81
2023-04-15T11:38:25.737Z,96884.09
2023-04-15T11:40:52.615Z,96875.13
2023-04-15T11:43:22.947Z,96876.09
2023-04-15T11:45:49.379Z,96878.53
2023-04-15T11:48:15.907Z,96887.25
2023-04-15T11:50:42.355Z,96889.81
2023-04-15T11:53:13.322Z,96879.31
2023-04-15T11:55:47.006Z,96887.38
2023-04-15T11:58:16.405Z,96882.00
2023-04-15T12:00:50.756Z,96895.78
2023-04-15T12:03:19.778Z,96899.38
2023-04-15T12:06:09.156Z,96890.47
2023-04-15T12:08:54.143Z,96895.66
2023-04-15T12:11:26.698Z,96899.75
2023-04-15T12:13:57.076Z,96902.34
2023-04-15T12:16:24.078Z,96902.78
2023-04-15T12:18:56.056Z,96910.78
2023-04-15T12:21:23.814Z,96906.53
2023-04-15T12:23:53.446Z,96917.13
2023-04-15T12:26:36.903Z,96919.16
2023-04-15T12:29:08.012Z,96921.03
2023-04-15T12:31:37.890Z,96921.63
2023-04-15T12:34:07.638Z,96933.31
2023-04-15T12:36:37.128Z,96938.94
2023-04-15T12:39:06.824Z,96924.31
2023-04-15T12:41:33.659Z,96937.16
2023-04-15T12:44:00.441Z,96931.72
2023-04-15T12:46:27.357Z,96936.72
2023-04-15T12:48:53.942Z,96936.34
2023-04-15T12:51:23.004Z,96944.50
2023-04-15T12:53:49.795Z,96948.00
2023-04-15T12:56:19.764Z,96943.31
2023-04-15T12:58:46.452Z,96949.28
2023-04-15T13:01:12.993Z,96951.09
2023-04-15T13:03:39.585Z,96961.47
2023-04-15T13:06:06.782Z,96955.88
2023-04-15T13:08:33.303Z,96965.03
2023-04-15T13:10:59.973Z,96967.50
2023-04-15T13:13:27.088Z,96965.88
2023-04-15T13:15:53.713Z,96978.72
2023-04-15T13:18:20.504Z,96987.69
2023-04-15T13:20:47.042Z,96980.75
2023-04-15T13:23:13.577Z,96984.78
2023-04-15T13:25:40.111Z,96990.94
2023-04-15T13:28:06.633Z,97004.81
2023-04-15T13:30:33.191Z,97000.28
2023-04-15T13:32:59.701Z,96994.25
2023-04-15T13:35:26.303Z,96999.59
2023-04-15T13:37:54.491Z,97000.53
2023-04-15T13:40:20.999Z,96999.25
2023-04-15T13:42:47.541Z,97002.22
2023-04-15T13:45:14.080Z,97011.19
2023-04-15T13:47:40.587Z,97010.22
2023-04-15T13:50:07.557Z,97017.91
2023-04-15T13:52:34.425Z,97014.53
2023-04-15T13:55:08.131Z,97007.75
2023-04-15T13:57:46.408Z,97016.50
2023-04-15T14:00:13.969Z,97025.66
2023-04-15T14:02:40.861Z,97021.53
2023-04-15T14:05:07.831Z,97032.00
2023-04-15T14:07:34.289Z,97032.47
2023-04-15T14:10:00.823Z,97031.38
2023-04-15T14:12:27.381Z,97037.16
2023-04-15T14:14:53.868Z,97038.19
2023-04-15T14:17:20.522Z,97046.28
2023-04-15T14:19:47.008Z,97037.22
2023-04-15T14:22:13.569Z,97044.09
2023-04-15T14:24:40.049Z,97047.88
2023-04-15T14:27:06.590Z,97048.69
2023-04-15T14:29:33.133Z,97048.50
2023-04-15T14:32:04.147Z,97051.94
2023-04-15T14:34:38.275Z,97057.13
2023-04-15T14:37:05.061Z,97056.28
2023-04-15T14:39:31.559Z,97062.63
2023-04-15T14:41:58.094Z,97063.28
2023-04-15T14:44:24.585Z,97066.41
2023-04-15T14:46:51.671Z,97064.31
2023-04-15T14:49:18.174Z,97063.13
2023-04-15T14:51:44.642Z,97065.91
2023-04-15T14:54:11.159Z,97070.19
2023-04-15T14:56:37.776Z,97078.94
2023-04-15T14:59:04.423Z,97076.03
2023-04-15T15:01:31.089Z,97074.28
2023-04-15T15:03:57.753Z,97076.19
2023-04-15T15:06:24.302Z,97076.38
2023-04-15T15:08:51.105Z,97086.06
2023-04-15T15:11:17.692Z,97089.53
2023-04-15T15:13:44.249Z,97086.88
2023-04-15T15:16:13.116Z,97089.88
2023-04-15T15:18:40.882Z,97097.63
2023-04-15T15:21:07.380Z,97100.97
2023-04-15T15:23:33.859Z,97103.63
2023-04-15T15:26:00.457Z,97105.13
2023-04-15T15:28:27.028Z,97106.28
2023-04-15T15:30:53.551Z,97108.91
2023-04-15T15:33:20.847Z,97112.22
2023-04-15T15:35:47.345Z,97106.94
2023-04-15T15:38:13.830Z,97120.44
2023-04-15T15:40:40.379Z,97121.63
2023-04-15T15:43:06.870Z,97116.09
2023-04-15T15:45:33.623Z,97124.34
2023-04-15T15:48:01.628Z,97119.25
2023-04-15T15:50:28.145Z,97127.44
2023-04-15T15:52:56.069Z,97135.31
2023-04-15T15:55:25.313Z,97138.09
2023-04-15T15:57:51.899Z,97137.03
2023-04-15T16:00:18.534Z,97140.44
2023-04-15T16:05:14.963Z,97143.53
2023-04-15T16:07:41.450Z,97145.31
2023-04-15T16:10:08.721Z,97148.09
2023-04-15T16:12:35.204Z,97153.97
2023-04-15T16:15:01.766Z,97154.13
2023-04-15T16:17:28.403Z,97159.28
2023-04-15T16:19:58.181Z,97158.81
2023-04-15T16:22:27.592Z,97156.78
2023-04-15T16:24:54.178Z,97156.34
2023-04-15T16:27:20.863Z,97167.97
2023-04-15T16:29:47.416Z,97173.91
2023-04-15T16:32:14.209Z,97169.88
2023-04-15T16:34:41.295Z,97170.63
2023-04-15T16:37:07.797Z,97171.81
2023-04-15T16:39:34.332Z,97175.91
2023-04-15T16:42:02.287Z,97174.56
2023-04-15T16:44:28.808Z,97178.81
2023-04-15T16:46:55.741Z,97180.09
2023-04-15T16:49:22.236Z,97183.09
2023-04-15T16:51:48.695Z,97192.03
2023-04-15T16:54:15.342Z,97192.03
2023-04-15T16:56:41.812Z,97190.38
2023-04-15T16:59:08.280Z,97198.09
2023-04-15T17:01:34.991Z,97192.53
2023-04-15T17:04:01.643Z,97199.34
2023-04-15T17:06:28.423Z,97197.47
2023-04-15T17:08:55.024Z,97204.13
2023-04-15T17:11:21.523Z,97211.16
2023-04-15T17:13:48.954Z,97204.16
2023-04-15T17:16:15.575Z,97212.13
2023-04-15T17:18:42.175Z,97215.09
2023-04-15T17:21:08.644Z,97212.81
2023-04-15T17:23:35.423Z,97221.44
2023-04-15T17:26:01.990Z,97226.94
2023-04-15T17:28:28.502Z,97225.75
2023-04-15T17:30:55.045Z,97229.06
2023-04-15T17:33:54.205Z,97236.03
2023-04-15T17:36:08.818Z,97239.69
2023-04-15T17:38:35.320Z,97253.94
2023-04-15T17:41:01.796Z,97254.56
2023-04-15T17:43:28.381Z,97256.06
2023-04-15T17:45:55.574Z,97258.22
2023-04-15T17:48:22.843Z,97259.38
2023-04-15T17:50:51.289Z,97267.66
2023-04-15T17:53:18.588Z,97269.31
2023-04-15T17:55:45.132Z,97269.00
2023-04-15T17:58:11.908Z,97278.44
2023-04-15T18:00:38.432Z,97274.16
2023-04-15T18:03:05.212Z,97277.78
2023-04-15T18:05:31.794Z,97283.75
2023-04-15T18:07:58.302Z,97287.38
2023-04-15T18:10:24.844Z,97291.34
2023-04-15T18:12:51.367Z,97295.50
2023-04-15T18:15:18.590Z,97286.38
2023-04-15T18:17:45.198Z,97307.06
2023-04-15T18:20:12.790Z,97307.91
2023-04-15T18:22:39.268Z,97316.69
2023-04-15T18:25:06.349Z,97312.53
2023-04-15T18:27:33.352Z,97314.84
2023-04-15T18:29:59.951Z,97319.16
2023-04-15T18:32:30.534Z,97326.78
2023-04-15T18:34:58.222Z,97328.09
2023-04-15T18:37:25.141Z,97336.56
2023-04-15T18:39:51.689Z,97339.00
2023-04-15T18:42:18.322Z,97342.00
2023-04-15T18:44:44.793Z,97354.91
2023-04-15T18:47:11.325Z,97345.13
2023-04-15T18:49:37.856Z,97355.91
2023-04-15T18:52:04.337Z,97357.06
2023-04-15T18:54:30.959Z,97361.84
2023-04-15T18:56:57.434Z,97371.44
2023-04-15T18:59:30.181Z,97373.25
2023-04-15T19:01:58.327Z,97370.97
2023-04-15T19:04:25.033Z,97375.09
2023-04-15T19:06:51.615Z,97381.91
2023-04-15T19:09:18.158Z,97387.19
2023-04-15T19:11:44.720Z,97387.50
2023-04-15T19:14:11.604Z,97385.66
2023-04-15T19:16:38.260Z,97388.03
2023-04-15T19:19:06.583Z,97393.97
2023-04-15T19:21:33.573Z,97402.06
2023-04-15T19:24:00.669Z,97397.91
2023-04-15T19:26:27.142Z,97405.88
2023-04-15T19:28:53.841Z,97402.88
2023-04-15T19:31:20.788Z,97411.44
2023-04-15T19:33:47.414Z,97413.78
2023-04-15T19:36:13.917Z,97417.75
2023-04-15T19:38:40.779Z,97424.00
2023-04-15T19:41:09.022Z,97421.06
2023-04-15T19:43:35.588Z,97412.13
2023-04-15T19:46:02.171Z,97417.75
2023-04-15T19:48:28.673Z,97417.75
2023-04-15T19:50:55.182Z,97424.00
2023-04-15T19:53:21.697Z,97426.00
2023-04-15T19:55:48.776Z,97428.66
2023-04-15T19:58:15.453Z,97424.00
2023-04-15T20:00:42.053Z,97433.56
2023-04-15T20:03:08.625Z,97433.56
2023-04-15T20:05:35.642Z,97428.66
2023-04-15T20:08:02.506Z,97431.25
2023-04-15T20:10:31.061Z,97436.59
2023-04-15T20:12:57.609Z,97437.72
2023-04-15T20:15:24.341Z,97434.91
2023-04-15T20:17:51.014Z,97436.53
2023-04-15T20:20:17.551Z,97434.78
2023-04-15T20:22:44.063Z,97444.88
2023-04-15T20:25:10.691Z,97439.38
2023-04-15T20:27:37.200Z,97441.47
2023-04-15T20:30:05.007Z,97440.19
2023-04-15T20:32:35.256Z,97447.38
2023-04-15T20:35:03.106Z,97444.53
2023-04-15T20:37:30.291Z,97455.47
2023-04-15T20:39:56.751Z,97453.31
2023-04-15T20:42:23.368Z,97456.00
2023-04-15T20:44:49.854Z,97454.50
2023-04-15T20:47:16.504Z,97459.78
2023-04-15T20:49:43.047Z,97460.78
2023-04-15T20:52:09.639Z,97470.00
2023-04-15T20:54:36.094Z,97460.44
2023-04-15T20:57:02.573Z,97458.78
2023-04-15T20:59:29.102Z,97460.03
2023-04-15T21:01:56.997Z,97461.38
2023-04-15T21:04:24.432Z,97474.91
2023-04-15T21:06:52.166Z,97476.00
2023-04-15T21:09:18.863Z,97480.47
2023-04-15T21:14:19.530Z,97483.78
2023-04-15T21:16:46.241Z,97482.28
2023-04-15T21:19:12.779Z,97483.13
2023-04-15T21:21:39.413Z,97485.06
2023-04-15T21:24:07.587Z,97491.53
2023-04-15T21:26:34.205Z,97494.53
2023-04-15T21:29:01.027Z,97504.66
2023-04-15T21:31:27.522Z,97500.00
2023-04-15T21:33:54.094Z,97507.28
2023-04-15T21:36:20.698Z,97505.13
2023-04-15T21:38:47.295Z,97509.56
2023-04-15T21:41:13.764Z,97509.94
2023-04-15T21:43:40.305Z,97510.59
2023-04-15T21:46:22.061Z,97515.81
2023-04-15T21:48:51.546Z,97511.50
2023-04-15T21:51:18.026Z,97525.75
2023-04-15T21:53:44.573Z,97512.59
2023-04-15T21:56:11.298Z,97525.09
2023-04-15T21:58:37.805Z,97529.09
2023-04-15T22:01:04.526Z,97532.09
2023-04-15T22:03:33.624Z,97526.13
2023-04-15T22:06:01.764Z,97538.00
2023-04-15T22:08:28.325Z,97536.50
2023-04-15T22:10:54.997Z,97539.31
2023-04-15T22:13:21.459Z,97547.25
2023-04-15T22:15:48.190Z,97541.16
2023-04-15T22:18:14.695Z,97546.63
2023-04-15T22:20:41.416Z,97544.53
2023-04-15T22:23:08.912Z,97554.81
2023-04-15T22:25:38.444Z,97552.84
2023-04-15T22:28:09.348Z,97549.22
2023-04-15T22:30:42.271Z,97558.44
2023-04-15T22:33:09.160Z,97558.13
2023-04-15T22:35:37.147Z,97563.13
2023-04-15T22:38:03.790Z,97567.88
2023-04-15T22:40:30.451Z,97568.72
2023-04-15T22:42:56.944Z,97571.00
2023-04-15T22:45:23.580Z,97557.41
2023-04-15T22:47:50.161Z,97565.41
2023-04-15T22:50:16.789Z,97572.81
2023-04-15T22:52:46.142Z,97571.72
2023-04-15T22:55:12.836Z,97579.31
2023-04-15T22:57:39.289Z,97572.84
2023-04-15T23:00:08.736Z,97577.78
2023-04-15T23:02:35.262Z,97577.28
2023-04-15T23:05:05.031Z,97576.72
2023-04-15T23:07:39.325Z,97583.75
2023-04-15T23:10:06.926Z,97579.38
2023-04-15T23:12:33.402Z,97576.94
2023-04-15T23:14:59.916Z,97577.31
2023-04-15T23:17:26.739Z,97584.59
2023-04-15T23:19:53.336Z,97585.25
2023-04-15T23:22:20.039Z,97581.28
2023-04-15T23:24:46.607Z,97587.41
2023-04-15T23:27:13.146Z,97586.78
2023-04-15T23:29:39.655Z,97594.38
2023-04-15T23:32:06.555Z,97591.75
2023-04-15T23:34:33.044Z,97589.59
2023-04-15T23:36:59.682Z,97592.59
2023-04-15T23:39:26.446Z,97588.97
2023-04-15T23:41:53.167Z,97593.28
2023-04-15T23:44:20.031Z,97591.81
2023-04-15T23:46:46.567Z,97593.00
2023-04-15T23:49:13.313Z,97601.31
2023-04-15T23:51:39.830Z,97594.38
2023-04-15T23:54:06.333Z,97599.97
2023-04-15T23:56:32.801Z,97598.09
2023-04-15T23:58:59.269Z,97597.47
